Time;durP1;ratioP1;P1;durP2;ratioP2;P2;SDS_P1;SDS_P2;PMS_P1;PMS_P2;Temp;Humidity;BMP_temperature;BMP_pressure;BME280_temperature;BME280_humidity;BME280_pressure;Samples;Min_cycle;Max_cycle;Signal;HPM_P1;HPM_P2
2022/09/30 00:01:44;;;;;;;21.65;18.02;;;;;;;4.32;100.00;100817.13;5053868;28;20029;-78
2022/09/30 00:04:14;;;;;;;22.38;17.83;;;;;;;4.31;100.00;100825.69;5035675;28;20055;-79
2022/09/30 00:06:39;;;;;;;20.48;16.75;;;;;;;4.31;100.00;100827.41;5053871;28;20027;-79
2022/09/30 00:09:05;;;;;;;20.45;16.65;;;;;;;4.22;100.00;100822.63;5053121;28;20376;-78
2022/09/30 00:11:33;;;;;;;19.52;17.13;;;;;;;4.17;100.00;100814.31;5053627;28;20033;-79
2022/09/30 00:14:00;;;;;;;21.63;16.50;;;;;;;4.20;100.00;100832.06;5053678;28;20175;-80
2022/09/30 00:16:29;;;;;;;22.55;17.52;;;;;;;3.86;100.00;100782.22;5053551;28;20423;-77
2022/09/30 00:18:56;;;;;;;19.92;16.55;;;;;;;4.17;100.00;100825.34;5053498;28;20047;-78
2022/09/30 00:21:22;;;;;;;19.98;16.40;;;;;;;4.02;100.00;100802.91;5053568;28;20032;-84
2022/09/30 00:23:47;;;;;;;21.33;16.13;;;;;;;4.05;100.00;100814.75;5053810;28;20090;-79
2022/09/30 00:26:16;;;;;;;20.52;16.58;;;;;;;4.11;100.00;100825.56;5053415;28;20452;-82
2022/09/30 00:28:42;;;;;;;19.30;16.42;;;;;;;3.76;100.00;100775.75;5053369;28;20119;-79
2022/09/30 00:31:13;;;;;;;22.23;17.48;;;;;;;4.06;100.00;100830.03;5053323;28;20100;-79
2022/09/30 00:33:39;;;;;;;20.08;16.02;;;;;;;4.03;100.00;100819.91;5053472;28;20025;-77
2022/09/30 00:36:05;;;;;;;19.90;16.08;;;;;;;4.03;100.00;100825.88;5053138;28;20357;-78
2022/09/30 00:38:30;;;;;;;18.85;16.50;;;;;;;3.86;100.00;100802.66;5052991;28;20115;-83
2022/09/30 00:40:55;;;;;;;20.38;16.40;;;;;;;3.96;100.00;100813.38;5053130;28;20021;-77
2022/09/30 00:43:50;;;;;;;18.98;16.15;;;;;;;3.86;100.00;100801.81;5053291;28;20053;-77
2022/09/30 00:46:40;;;;;;;19.73;16.42;;;;;;;3.97;100.00;100820.13;5053237;28;20025;-78
2022/09/30 00:49:16;;;;;;;19.90;16.25;;;;;;;3.80;100.00;100797.75;5053289;28;20043;-80
2022/09/30 00:51:46;;;;;;;19.83;15.90;;;;;;;3.76;100.00;100801.31;5053186;28;20452;-79
2022/09/30 00:54:17;;;;;;;21.13;16.92;;;;;;;3.76;100.00;100797.91;5052736;28;20025;-79
2022/09/30 00:56:51;;;;;;;19.13;16.95;;;;;;;3.73;100.00;100804.78;5052676;28;20040;-78
2022/09/30 00:59:22;;;;;;;19.90;15.95;;;;;;;3.76;100.00;100811.50;5053034;28;20460;-85
2022/09/30 01:01:48;;;;;;;18.60;15.55;;;;;;;3.77;100.00;100812.34;5052987;28;20039;-79
2022/09/30 01:04:16;;;;;;;19.42;16.55;;;;;;;3.77;100.00;100820.84;5052987;28;20115;-83
2022/09/30 01:06:42;;;;;;;18.40;16.15;;;;;;;3.83;100.00;100835.09;5052676;28;20036;-84
2022/09/30 01:09:09;;;;;;;17.75;14.88;;;;;;;3.81;100.00;100832.59;5053217;28;20025;-85
2022/09/30 01:11:35;;;;;;;18.77;15.85;;;;;;;3.80;100.00;100835.22;5052737;28;20028;-80
2022/09/30 01:14:22;;;;;;;18.77;15.43;;;;;;;3.79;100.00;100839.50;5052680;28;20111;-79
2022/09/30 01:17:05;;;;;;;19.33;15.90;;;;;;;3.76;100.00;100836.22;5053002;28;20029;-80
2022/09/30 01:20:20;;;;;;;19.88;16.33;;;;;;;3.74;100.00;100828.63;5053558;28;20469;-79
2022/09/30 01:23:25;;;;;;;19.23;15.75;;;;;;;3.75;100.00;100830.28;4995542;28;20494;-84
2022/09/30 01:26:02;;;;;;;18.83;15.23;;;;;;;3.70;100.00;100827.03;4979030;28;20433;-84
2022/09/30 01:28:46;;;;;;;19.45;14.73;;;;;;;3.69;100.00;100831.31;4995354;28;20371;-80
2022/09/30 01:31:42;;;;;;;19.73;15.70;;;;;;;3.68;100.00;100831.38;4995288;28;20129;-78
2022/09/30 01:34:19;;;;;;;18.73;14.55;;;;;;;3.65;100.00;100839.97;4995243;28;20038;-82
2022/09/30 01:37:08;;;;;;;18.42;15.10;;;;;;;3.62;100.00;100829.03;4995456;28;20141;-85
2022/09/30 01:39:40;;;;;;;19.95;16.05;;;;;;;3.61;100.00;100828.19;4993853;28;20038;-84
2022/09/30 01:42:22;;;;;;;20.52;16.10;;;;;;;3.53;100.00;100825.06;4994924;28;20030;-83
2022/09/30 01:44:53;;;;;;;17.77;15.40;;;;;;;3.53;100.00;100835.28;4995079;28;20038;-79
2022/09/30 01:47:28;;;;;;;20.02;16.27;;;;;;;3.32;100.00;100792.59;4995099;28;20049;-82
2022/09/30 01:50:19;;;;;;;18.80;15.52;;;;;;;3.51;100.00;100828.56;4995424;28;20125;-79
2022/09/30 01:52:57;;;;;;;20.48;15.30;;;;;;;3.30;100.00;100799.47;5011118;28;20033;-83
2022/09/30 01:55:32;;;;;;;17.25;14.52;;;;;;;3.42;100.00;100816.94;5056590;28;20025;-85
2022/09/30 01:58:25;;;;;;;18.05;15.23;;;;;;;3.47;100.00;100827.84;5056103;28;20435;-85
2022/09/30 02:00:54;;;;;;;17.10;14.50;;;;;;;3.37;100.00;100818.81;5056230;28;20023;-85
2022/09/30 02:03:26;;;;;;;17.20;14.85;;;;;;;3.43;100.00;100839.00;5056079;28;20484;-85
2022/09/30 02:06:06;;;;;;;17.70;14.60;;;;;;;3.40;100.00;100832.31;5056160;28;20039;-85
2022/09/30 02:08:51;;;;;;;16.70;13.88;;;;;;;3.37;100.00;100824.75;5056071;28;20021;-84
2022/09/30 02:11:24;;;;;;;17.15;13.70;;;;;;;3.38;100.00;100833.25;5055975;28;20029;-85
2022/09/30 02:14:14;;;;;;;17.13;14.02;;;;;;;3.38;100.00;100840.91;5055861;28;20479;-84
2022/09/30 02:16:48;;;;;;;16.23;13.75;;;;;;;3.13;100.00;100805.13;5056176;28;20420;-84
2022/09/30 02:19:17;;;;;;;18.35;13.88;;;;;;;3.14;100.00;100801.69;5055766;28;20045;-84
2022/09/30 02:21:50;;;;;;;16.67;13.35;;;;;;;3.32;100.00;100839.38;5055847;28;20029;-83
2022/09/30 02:24:20;;;;;;;18.70;15.00;;;;;;;3.32;100.00;100836.81;5055693;28;20025;-85
2022/09/30 02:26:48;;;;;;;17.17;14.32;;;;;;;3.30;100.00;100835.22;5055635;28;20040;-85
2022/09/30 02:29:35;;;;;;;18.48;14.80;;;;;;;3.30;100.00;100830.09;5055504;28;20040;-84
2022/09/30 02:32:06;;;;;;;16.52;13.55;;;;;;;3.27;100.00;100838.69;5054665;28;20070;-84
2022/09/30 02:34:38;;;;;;;21.33;15.15;;;;;;;3.27;100.00;100838.69;5055609;28;20029;-84
2022/09/30 02:37:16;;;;;;;18.55;14.30;;;;;;;3.22;100.00;100827.78;5055401;28;20025;-85
2022/09/30 02:39:51;;;;;;;16.83;14.00;;;;;;;3.24;100.00;100831.13;5055298;28;20064;-83
2022/09/30 02:42:27;;;;;;;17.40;14.10;;;;;;;3.00;100.00;100793.66;5055249;28;20036;-86
2022/09/30 02:44:57;;;;;;;16.27;13.00;;;;;;;3.22;100.00;100834.63;5055346;28;20047;-85
2022/09/30 02:48:02;;;;;;;15.00;13.25;;;;;;;3.20;100.00;100828.75;5055318;28;20366;-81
2022/09/30 02:50:34;;;;;;;14.88;12.60;;;;;;;3.17;100.00;100835.63;4993998;28;20045;-83
2022/09/30 02:53:18;;;;;;;17.65;14.38;;;;;;;3.16;100.00;100841.59;4993771;28;20386;-85
2022/09/30 02:56:11;;;;;;;18.77;13.43;;;;;;;3.10;100.00;100835.84;4993836;28;20034;-81
2022/09/30 02:58:39;;;;;;;18.85;13.75;;;;;;;3.12;100.00;100837.47;4993845;28;20113;-79
2022/09/30 03:01:10;;;;;;;16.83;13.90;;;;;;;3.11;100.00;100840.91;4993738;28;20078;-84
2022/09/30 03:03:47;;;;;;;16.25;14.23;;;;;;;3.10;100.00;100836.69;4993739;28;20125;-85
2022/09/30 03:06:13;;;;;;;16.92;14.52;;;;;;;3.04;100.00;100834.31;4993397;28;20383;-86
2022/09/30 03:08:39;;;;;;;17.13;15.15;;;;;;;3.06;100.00;100832.56;4993516;28;20081;-86
2022/09/30 03:11:05;;;;;;;18.67;14.80;;;;;;;3.05;100.00;100845.38;4993481;28;20026;-82
2022/09/30 03:13:55;;;;;;;16.60;14.30;;;;;;;3.05;100.00;100837.72;4993276;28;20038;-84
2022/09/30 03:16:44;;;;;;;18.05;13.77;;;;;;;2.95;100.00;100821.88;4993509;28;20046;-81
2022/09/30 03:19:16;;;;;;;16.05;13.63;;;;;;;2.95;100.00;100828.66;4993008;28;20058;-80
2022/09/30 03:22:10;;;;;;;16.58;13.25;;;;;;;2.97;100.00;100840.53;4994078;28;20565;-85
2022/09/30 03:25:00;;;;;;;17.25;14.48;;;;;;;2.97;100.00;100839.69;4993370;28;20034;-85
2022/09/30 03:27:41;;;;;;;18.05;14.65;;;;;;;2.96;100.00;100851.59;5028244;28;20123;-86
2022/09/30 03:30:12;;;;;;;19.88;15.57;;;;;;;2.93;100.00;100849.13;5054347;28;20055;-86
2022/09/30 03:32:56;;;;;;;19.58;15.23;;;;;;;2.98;100.00;100857.50;5054615;28;20178;-85
2022/09/30 03:35:28;;;;;;;19.55;14.73;;;;;;;2.94;100.00;100853.34;5054322;28;20059;-86
2022/09/30 03:38:15;;;;;;;18.52;14.65;;;;;;;2.92;100.00;100846.63;5054371;28;20395;-86
2022/09/30 03:41:05;;;;;;;19.05;14.70;;;;;;;2.91;100.00;100840.69;5054352;28;20082;-85
2022/09/30 03:43:49;;;;;;;17.88;15.15;;;;;;;2.74;100.00;100825.91;5053885;28;20442;-85
2022/09/30 03:46:25;;;;;;;18.70;15.20;;;;;;;2.86;100.00;100858.72;5053985;28;20384;-86
2022/09/30 03:48:55;;;;;;;19.23;15.35;;;;;;;2.67;100.00;100827.00;5053883;28;20029;-86
2022/09/30 03:51:23;;;;;;;18.95;15.55;;;;;;;2.86;100.00;100858.72;5036217;28;20028;-86
2022/09/30 03:53:49;;;;;;;20.15;15.85;;;;;;;2.85;100.00;100856.19;5054099;28;20029;-85
2022/09/30 03:56:27;;;;;;;20.25;16.70;;;;;;;2.83;100.00;100868.16;5054080;28;20021;-85
2022/09/30 03:58:52;;;;;;;19.25;16.10;;;;;;;2.81;100.00;100867.38;5053726;28;20032;-85
2022/09/30 04:01:20;;;;;;;19.27;16.20;;;;;;;2.67;100.00;100854.22;5054028;28;20032;-85
2022/09/30 04:03:51;;;;;;;19.83;16.05;;;;;;;2.73;100.00;100869.31;5053846;28;20040;-85
2022/09/30 04:06:18;;;;;;;20.70;15.98;;;;;;;2.78;100.00;100881.06;5054209;28;20028;-84
2022/09/30 04:08:43;;;;;;;20.30;16.15;;;;;;;2.76;100.00;100882.00;5053951;28;20024;-84
2022/09/30 04:11:10;;;;;;;19.63;16.05;;;;;;;2.67;100.00;100882.25;5053619;28;20032;-84
2022/09/30 04:13:36;;;;;;;22.33;16.75;;;;;;;2.77;100.00;100901.50;5053418;28;20027;-83
2022/09/30 04:16:01;;;;;;;20.67;16.33;;;;;;;2.64;100.00;100885.72;5069056;28;20740;-84
2022/09/30 04:18:27;;;;;;;19.83;16.08;;;;;;;2.59;100.00;100885.84;5035494;28;20037;-81
2022/09/30 04:20:52;;;;;;;25.05;19.42;;;;;;;2.48;100.00;100864.13;5053882;28;20036;-85
2022/09/30 04:23:17;;;;;;;22.85;18.42;;;;;;;2.71;100.00;100911.88;5053785;28;20032;-85
2022/09/30 04:25:50;;;;;;;23.48;17.83;;;;;;;2.83;100.00;100924.25;5053417;28;20028;-85
2022/09/30 04:28:15;;;;;;;27.15;20.52;;;;;;;2.84;100.00;100929.31;5053424;28;20040;-86
2022/09/30 04:30:40;;;;;;;24.52;19.45;;;;;;;2.83;100.00;100932.72;5052933;28;20025;-86
2022/09/30 04:33:06;;;;;;;22.08;18.17;;;;;;;2.80;100.00;100927.75;5053297;28;20100;-85
2022/09/30 04:35:31;;;;;;;23.20;18.40;;;;;;;2.80;100.00;100920.09;5053309;28;20082;-86
2022/09/30 04:37:56;;;;;;;22.63;18.23;;;;;;;2.75;100.00;100916.00;5053674;28;20048;-86
2022/09/30 04:40:22;;;;;;;24.05;19.10;;;;;;;2.66;100.00;100908.63;5053392;28;20510;-79
2022/09/30 04:42:47;;;;;;;21.48;17.52;;;;;;;2.48;100.00;100885.34;5053364;28;20104;-79
2022/09/30 04:45:13;;;;;;;22.15;17.65;;;;;;;2.69;100.00;100926.38;5052899;28;20349;-80
2022/09/30 04:47:43;;;;;;;22.48;17.02;;;;;;;2.53;100.00;100908.13;5053312;28;20025;-78
2022/09/30 04:50:08;;;;;;;22.90;17.65;;;;;;;2.58;100.00;100924.16;5052996;28;20423;-80
2022/09/30 04:52:33;;;;;;;20.95;17.50;;;;;;;2.62;100.00;100940.19;5053339;28;20035;-78
2022/09/30 04:54:59;;;;;;;22.83;18.85;;;;;;;2.62;100.00;100935.06;5052931;28;20104;-77
2022/09/30 04:57:26;;;;;;;23.52;18.98;;;;;;;2.54;100.00;100930.19;5053211;28;20029;-79
2022/09/30 04:59:52;;;;;;;21.80;17.70;;;;;;;2.47;100.00;100921.06;5052724;28;20028;-77
2022/09/30 05:02:17;;;;;;;21.48;17.98;;;;;;;2.60;100.00;100947.88;5053372;28;20040;-81
2022/09/30 05:04:42;;;;;;;23.88;18.15;;;;;;;2.37;100.00;100909.47;5068754;28;20029;-79
2022/09/30 05:07:08;;;;;;;22.27;18.08;;;;;;;2.57;100.00;100953.91;5053057;28;20029;-79
2022/09/30 05:09:36;;;;;;;23.55;17.48;;;;;;;2.57;100.00;100958.16;5052947;28;20114;-78
2022/09/30 05:12:02;;;;;;;25.75;19.13;;;;;;;2.50;100.00;100939.66;5052914;28;20020;-78
2022/09/30 05:14:28;;;;;;;23.60;18.90;;;;;;;2.31;100.00;100920.63;5052602;28;20028;-78
2022/09/30 05:16:56;;;;;;;23.58;18.92;;;;;;;2.40;100.00;100935.69;5034585;28;20037;-81
2022/09/30 05:19:22;;;;;;;24.55;18.83;;;;;;;2.51;100.00;100958.31;5034734;28;20060;-80
2022/09/30 05:21:47;;;;;;;24.63;19.58;;;;;;;2.53;100.00;100959.09;5052805;28;20033;-77
2022/09/30 05:24:12;;;;;;;23.58;18.63;;;;;;;2.34;100.00;100928.19;5052684;28;20021;-78
2022/09/30 05:26:39;;;;;;;23.75;18.77;;;;;;;2.42;100.00;100939.00;5052594;28;20029;-80
2022/09/30 05:29:05;;;;;;;25.02;19.13;;;;;;;2.45;100.00;100950.84;5052594;28;20032;-83
2022/09/30 05:31:30;;;;;;;25.10;19.75;;;;;;;2.49;100.00;100962.63;5052170;28;20039;-79
2022/09/30 05:33:55;;;;;;;27.80;19.92;;;;;;;2.49;100.00;100965.19;5052741;28;20029;-79
2022/09/30 05:36:21;;;;;;;25.30;20.10;;;;;;;2.34;100.00;100948.56;5052648;28;20029;-80
2022/09/30 05:38:49;;;;;;;27.88;20.98;;;;;;;2.47;100.00;100965.22;5052614;28;20079;-79
2022/09/30 05:41:16;;;;;;;24.35;19.35;;;;;;;2.25;100.00;100941.19;5052483;28;20465;-79
2022/09/30 05:43:48;;;;;;;25.98;20.73;;;;;;;2.35;100.00;100952.78;5052624;28;20029;-78
2022/09/30 05:46:18;;;;;;;30.77;21.13;;;;;;;2.34;100.00;100960.47;5052334;28;20415;-79
2022/09/30 05:48:44;;;;;;;29.85;20.95;;;;;;;2.34;100.00;100968.97;5052506;28;20047;-80
2022/09/30 05:51:10;;;;;;;27.65;20.92;;;;;;;2.46;100.00;100983.94;5052553;28;20020;-78
2022/09/30 05:53:40;;;;;;;25.67;20.60;;;;;;;2.53;100.00;100987.16;5052594;28;20372;-78
2022/09/30 05:56:06;;;;;;;27.60;21.17;;;;;;;2.58;100.00;100998.91;5052241;28;20036;-78
2022/09/30 05:58:32;;;;;;;27.35;20.95;;;;;;;2.56;100.00;100995.56;5052229;28;20017;-80
2022/09/30 06:01:07;;;;;;;26.58;20.73;;;;;;;2.67;100.00;101002.09;5052164;28;20029;-80
2022/09/30 06:03:33;;;;;;;27.55;20.60;;;;;;;2.68;100.00;101003.75;5052651;28;20071;-82
2022/09/30 06:05:58;;;;;;;29.67;22.65;;;;;;;2.72;100.00;101008.72;5052542;28;20418;-78
2022/09/30 06:08:24;;;;;;;26.60;21.10;;;;;;;2.77;100.00;101006.88;5055843;28;20029;-82
2022/09/30 06:10:49;;;;;;;30.52;23.00;;;;;;;2.89;100.00;101010.81;5055963;28;20061;-84
2022/09/30 06:13:16;;;;;;;29.52;22.23;;;;;;;2.83;100.00;101003.31;5056067;28;20028;-81
2022/09/30 06:15:42;;;;;;;30.38;21.70;;;;;;;2.89;100.00;101003.16;5056029;28;20025;-83
2022/09/30 06:18:08;;;;;;;28.67;21.58;;;;;;;2.82;100.00;100976.13;5055647;28;20048;-84
2022/09/30 06:20:34;;;;;;;29.88;21.58;;;;;;;2.97;100.00;101001.22;5055948;28;20051;-84
2022/09/30 06:23:00;;;;;;;27.90;20.83;;;;;;;2.92;100.00;100990.31;5055799;28;20438;-84
2022/09/30 06:25:27;;;;;;;29.17;21.98;;;;;;;3.09;100.00;101016.16;5054717;28;20103;-80
2022/09/30 06:27:53;;;;;;;37.63;23.63;;;;;;;3.26;100.00;101030.16;5056188;28;20028;-82
2022/09/30 06:30:18;;;;;;;28.77;22.52;;;;;;;3.33;100.00;101027.34;5055554;28;20079;-82
2022/09/30 06:32:44;;;;;;;33.47;24.27;;;;;;;3.45;100.00;101029.56;5055676;28;20028;-81
2022/09/30 06:35:10;;;;;;;33.17;24.15;;;;;;;3.53;100.00;101025.91;5055644;28;20028;-78
2022/09/30 06:37:36;;;;;;;37.70;25.70;;;;;;;3.64;100.00;101032.41;5055380;28;20029;-78
2022/09/30 06:40:03;;;;;;;35.65;25.95;;;;;;;3.74;100.00;101020.16;5037747;28;20029;-78
2022/09/30 06:42:28;;;;;;;35.08;24.77;;;;;;;3.71;100.00;100998.09;5055308;28;20473;-83
2022/09/30 06:44:54;;;;;;;36.08;26.48;;;;;;;3.85;100.00;101013.00;5055380;28;20078;-82
2022/09/30 06:47:20;;;;;;;36.10;26.90;;;;;;;3.79;100.00;100987.63;5055152;28;20040;-83
2022/09/30 06:49:45;;;;;;;36.80;27.83;;;;;;;4.06;100.00;101013.19;5055451;28;20025;-82
2022/09/30 06:52:13;;;;;;;37.22;27.75;;;;;;;4.15;100.00;101021.38;5055176;28;20052;-83
2022/09/30 06:54:42;;;;;;;37.75;28.52;;;;;;;4.25;100.00;101017.63;5055202;28;20061;-82
2022/09/30 06:57:07;;;;;;;40.33;29.00;;;;;;;4.34;100.00;101010.53;5055219;28;20427;-83
2022/09/30 06:59:33;;;;;;;37.65;28.65;;;;;;;4.24;100.00;100974.22;5055107;28;20025;-82
2022/09/30 07:01:58;;;;;;;39.13;29.80;;;;;;;4.55;100.00;101014.91;5054032;28;20481;-83
2022/09/30 07:04:23;;;;;;;37.95;29.00;;;;;;;4.63;100.00;101015.47;5055091;28;20189;-84
2022/09/30 07:06:49;;;;;;;39.15;29.90;;;;;;;4.73;100.00;101016.81;5055189;28;20392;-84
2022/09/30 07:09:15;;;;;;;37.80;30.65;;;;;;;4.83;100.00;101022.44;5054848;28;20461;-83
2022/09/30 07:11:41;;;;;;;40.72;31.90;;;;;;;4.91;100.00;101025.53;5054929;28;20025;-82
2022/09/30 07:14:07;;;;;;;44.97;33.28;;;;;;;4.96;100.00;101002.34;5054950;28;20021;-83
2022/09/30 07:16:33;;;;;;;43.92;33.80;;;;;;;5.09;100.00;101003.56;5054582;28;20154;-78
2022/09/30 07:19:03;;;;;;;45.35;34.45;;;;;;;5.26;100.00;101011.44;5054144;28;20053;-85
2022/09/30 07:21:30;;;;;;;50.38;36.30;;;;;;;5.41;100.00;101017.72;5055639;28;20395;-86
2022/09/30 07:23:57;;;;;;;51.78;38.67;;;;;;;5.29;100.00;100988.28;5054686;28;20103;-86
2022/09/30 07:26:23;;;;;;;49.13;36.95;;;;;;;5.65;100.00;101018.47;5054646;28;20056;-85
2022/09/30 07:28:49;;;;;;;54.13;39.42;;;;;;;5.74;100.00;101013.00;5054500;28;20496;-83
2022/09/30 07:31:24;;;;;;;52.60;38.15;;;;;;;5.86;100.00;101022.75;5054390;28;20029;-83
2022/09/30 07:33:50;;;;;;;53.50;37.88;;;;;;;5.92;100.00;101022.53;5054219;28;20089;-83
2022/09/30 07:36:17;;;;;;;50.72;38.58;;;;;;;6.05;100.00;101017.72;5054300;28;20104;-82
2022/09/30 07:38:44;;;;;;;54.25;38.08;;;;;;;6.05;100.00;100999.78;5054235;28;20476;-83
2022/09/30 07:41:12;;;;;;;50.17;38.70;;;;;;;6.25;100.00;101022.88;5054306;28;20029;-83
2022/09/30 07:43:39;;;;;;;51.70;39.90;;;;;;;6.38;100.00;101028.31;5086190;28;20086;-85
2022/09/30 07:46:10;;;;;;;48.25;39.05;;;;;;;6.44;100.00;101022.09;5054231;28;20029;-82
2022/09/30 07:48:46;;;;;;;51.00;40.58;;;;;;;6.60;100.00;101029.06;5053932;28;20126;-82
2022/09/30 07:51:20;;;;;;;51.25;39.33;;;;;;;6.53;100.00;101002.00;5086381;28;20116;-82
2022/09/30 07:53:48;;;;;;;51.33;40.95;;;;;;;6.81;100.00;101018.78;5054128;28;20023;-80
2022/09/30 07:56:14;;;;;;;48.42;39.10;;;;;;;6.00;100.00;100874.38;5053994;28;20029;-82
2022/09/30 07:58:40;;;;;;;53.83;40.67;;;;;;;6.49;100.00;100941.50;5054173;28;20056;-82
2022/09/30 08:01:11;;;;;;;47.15;39.22;;;;;;;6.64;100.00;100947.66;5053839;28;20520;-83
2022/09/30 08:03:40;;;;;;;50.75;40.45;;;;;;;7.02;100.00;100983.59;5053833;28;20063;-83
2022/09/30 08:06:08;;;;;;;52.22;39.78;;;;;;;7.09;100.00;100985.00;5053884;28;20412;-82
2022/09/30 08:08:35;;;;;;;45.53;37.92;;;;;;;7.41;100.00;101016.88;5053888;28;20423;-82
2022/09/30 08:11:01;;;;;;;45.35;37.42;;;;;;;7.28;100.00;100979.84;5053684;28;20021;-81
2022/09/30 08:13:26;;;;;;;45.05;37.75;;;;;;;7.61;100.00;101023.66;5053706;28;20036;-82
2022/09/30 08:15:52;;;;;;;45.55;37.72;;;;;;;7.69;100.00;101016.41;5053627;28;20029;-83
2022/09/30 08:18:17;;;;;;;42.90;36.75;;;;;;;7.62;100.00;101003.03;5053421;28;20095;-83
2022/09/30 08:20:43;;;;;;;45.30;35.88;;;;;;;7.66;100.00;100983.13;5052432;28;20037;-81
2022/09/30 08:23:08;;;;;;;41.92;36.13;;;;;;;7.74;100.00;100991.31;5053489;28;20075;-84
2022/09/30 08:25:33;;;;;;;45.90;35.63;;;;;;;7.97;100.00;101016.75;5053633;28;20029;-80
2022/09/30 08:27:59;;;;;;;43.00;34.47;;;;;;;8.14;100.00;101015.06;5053254;28;20543;-81
2022/09/30 08:30:25;;;;;;;39.67;32.45;;;;;;;8.15;100.00;101004.69;5052705;28;20021;-80
2022/09/30 08:32:50;;;;;;;39.55;32.38;;;;;;;7.66;100.00;100903.47;5053217;28;20469;-81
2022/09/30 08:35:15;;;;;;;37.75;30.70;;;;;;;8.44;100.00;101023.84;5053249;28;20354;-81
2022/09/30 08:37:41;;;;;;;35.08;27.80;;;;;;;8.52;100.00;101010.59;5085190;28;20033;-82
2022/09/30 08:40:20;;;;;;;35.63;29.75;;;;;;;8.61;100.00;101013.53;5053341;28;20028;-82
2022/09/30 08:43:23;;;;;;;34.45;27.70;;;;;;;8.69;100.00;101020.03;5053179;28;20029;-82
2022/09/30 08:46:03;;;;;;;33.13;27.17;;;;;;;8.82;100.00;101027.00;5053424;28;20464;-81
2022/09/30 08:48:43;;;;;;;31.38;26.20;;;;;;;8.86;100.00;101013.09;5052956;28;20369;-81
2022/09/30 08:51:27;;;;;;;32.90;25.58;;;;;;;8.99;100.00;101028.72;5053271;28;20061;-81
2022/09/30 08:53:54;;;;;;;33.47;26.98;;;;;;;9.10;100.00;101046.16;5053081;28;20035;-82
2022/09/30 08:56:30;;;;;;;30.23;26.17;;;;;;;8.94;100.00;101009.25;5053083;28;20388;-82
2022/09/30 08:59:22;;;;;;;34.28;27.75;;;;;;;9.25;100.00;101037.63;5052953;28;20024;-80
2022/09/30 09:01:52;;;;;;;34.50;29.73;;;;;;;9.27;100.00;101024.66;5053151;28;20469;-80
2022/09/30 09:04:20;;;;;;;35.00;28.50;;;;;;;9.33;100.00;101019.16;5052772;28;20048;-82
2022/09/30 09:07:06;;;;;;;33.28;27.08;;;;;;;9.42;100.00;101013.50;5052859;28;20025;-82
2022/09/30 09:09:56;;;;;;;36.97;29.60;;;;;;;9.61;100.00;101010.72;5052837;28;20021;-77
2022/09/30 09:13:22;;;;;;;33.97;28.10;;;;;;;9.53;100.00;100998.25;5053109;28;20111;-82
2022/09/30 09:16:01;;;;;;;32.08;27.48;;;;;;;9.60;100.00;100996.19;4991545;28;20039;-84
2022/09/30 09:18:33;;;;;;;31.60;25.88;;;;;;;9.38;100.00;100948.41;4990974;28;20057;-83
2022/09/30 09:21:18;;;;;;;28.42;23.92;;;;;;;10.03;100.00;101026.38;4991438;28;20053;-83
2022/09/30 09:23:43;;;;;;;27.70;22.20;;;;;;;10.14;100.00;101019.75;4991558;28;20030;-83
2022/09/30 09:26:16;;;;;;;28.17;20.63;;;;;;;10.23;100.00;101027.00;4991466;28;20522;-83
2022/09/30 09:28:55;;;;;;;26.45;22.98;;;;;;;10.38;100.00;101036.41;4991396;28;20401;-84
2022/09/30 09:31:21;;;;;;;23.80;19.65;;;;;;;10.44;100.00;101037.81;4977040;28;20553;-85
2022/09/30 09:33:49;;;;;;;21.10;16.40;;;;;;;10.27;100.00;101007.81;4972014;28;20054;-84
2022/09/30 09:36:40;;;;;;;21.73;17.02;;;;;;;10.53;100.00;101045.84;4972249;28;20503;-85
2022/09/30 09:39:17;;;;;;;22.20;17.07;;;;;;;10.57;100.00;101039.56;4972251;28;20457;-87
2022/09/30 09:42:10;;;;;;;22.20;17.05;;;;;;;10.67;100.00;101033.84;4958325;28;20289;-85
2022/09/30 09:44:57;;;;;;;21.17;15.40;;;;;;;10.43;100.00;100987.94;4975753;28;20069;-85
2022/09/30 09:47:22;;;;;;;19.80;15.95;;;;;;;10.52;100.00;100994.28;5043546;28;20041;-85
2022/09/30 09:50:03;;;;;;;20.58;15.40;;;;;;;10.82;100.00;101036.34;5038068;28;20041;-85
2022/09/30 09:53:02;;;;;;;17.38;13.70;;;;;;;10.62;99.48;100983.31;5056318;28;20037;-84
2022/09/30 09:55:27;;;;;;;18.15;13.52;;;;;;;10.88;99.66;100997.22;5056189;28;20024;-84
2022/09/30 09:58:12;;;;;;;19.48;14.85;;;;;;;11.05;99.16;101016.84;5056261;28;20040;-84
2022/09/30 10:03:25;;;;;;;19.33;14.68;;;;;;;11.18;98.66;101017.75;5056530;28;20111;-86
2022/09/30 10:06:02;;;;;;;20.40;14.98;;;;;;;11.22;98.53;101009.81;5056085;28;20025;-85
2022/09/30 10:08:30;;;;;;;20.02;15.95;;;;;;;11.22;98.79;100989.13;5055924;28;20082;-84
2022/09/30 10:10:59;;;;;;;20.00;16.20;;;;;;;11.38;97.48;101023.41;5055858;28;20135;-83
2022/09/30 10:13:40;;;;;;;19.73;15.60;;;;;;;11.53;97.29;101027.63;5056173;28;20025;-85
2022/09/30 10:16:40;;;;;;;18.67;15.05;;;;;;;11.29;97.78;100973.13;5054885;28;20025;-79
2022/09/30 10:19:21;;;;;;;19.08;14.68;;;;;;;11.71;97.36;101028.22;5053949;28;20040;-85
2022/09/30 10:21:47;;;;;;;17.10;12.75;;;;;;;11.59;95.24;100993.59;5055583;28;20025;-81
2022/09/30 10:24:30;;;;;;;15.88;12.35;;;;;;;11.71;94.61;100985.06;5087949;28;20021;-84
2022/09/30 10:26:58;;;;;;;14.85;13.15;;;;;;;11.86;93.25;100998.78;5110080;22;20393;-84
2022/09/30 10:29:32;;;;;;;16.73;11.73;;;;;;;11.87;93.63;100994.44;5063108;22;20053;-80
2022/09/30 10:32:07;;;;;;;18.25;13.15;;;;;;;12.12;94.03;101011.78;5055686;28;20491;-83
2022/09/30 10:34:36;;;;;;;17.23;12.20;;;;;;;12.21;93.01;101024.09;5054064;28;20021;-81
2022/09/30 10:37:18;;;;;;;12.77;10.13;;;;;;;12.36;91.12;101017.88;5055519;28;20465;-85
2022/09/30 10:40:00;;;;;;;12.30;10.27;;;;;;;12.50;91.29;101029.91;5055399;28;20112;-82
2022/09/30 10:42:30;;;;;;;13.70;10.95;;;;;;;12.63;90.57;101015.19;5055527;28;20017;-80
2022/09/30 10:44:57;;;;;;;12.35;9.48;;;;;;;12.70;90.35;101025.97;5055620;28;20035;-83
2022/09/30 10:47:25;;;;;;;11.77;9.20;;;;;;;12.68;88.61;101018.28;5053594;28;20388;-83
2022/09/30 10:49:59;;;;;;;11.15;8.73;;;;;;;12.75;87.98;101024.69;5054988;28;20021;-81
2022/09/30 10:52:27;;;;;;;9.80;7.93;;;;;;;12.76;86.68;101010.81;5054465;28;20055;-82
2022/09/30 10:54:58;;;;;;;11.23;8.73;;;;;;;12.93;86.39;101033.81;5053378;28;20453;-82
2022/09/30 10:57:35;;;;;;;11.17;8.43;;;;;;;12.61;86.22;100980.78;5055050;28;20064;-82
2022/09/30 11:00:13;;;;;;;11.75;7.95;;;;;;;12.94;85.18;101006.13;5055063;28;20029;-80
2022/09/30 11:02:40;;;;;;;8.93;6.65;;;;;;;13.20;84.79;101028.47;5055394;28;20079;-82
2022/09/30 11:05:21;;;;;;;9.10;6.72;;;;;;;13.22;85.09;101024.94;5054922;28;20033;-81
2022/09/30 11:07:57;;;;;;;9.60;6.88;;;;;;;12.97;83.24;100958.41;5055020;28;20513;-83
2022/09/30 11:10:22;;;;;;;8.55;6.47;;;;;;;13.49;81.42;101013.44;5053160;28;20040;-83
2022/09/30 11:12:56;;;;;;;8.38;6.00;;;;;;;13.71;80.79;101011.88;5054861;28;20025;-84
2022/09/30 11:15:28;;;;;;;6.70;5.10;;;;;;;13.85;77.28;101009.06;5054811;28;20025;-82
2022/09/30 11:18:16;;;;;;;7.57;5.15;;;;;;;13.35;77.96;100924.56;5054477;28;20381;-83
2022/09/30 11:20:49;;;;;;;8.13;4.70;;;;;;;13.82;77.54;100990.31;5054490;28;20028;-83
2022/09/30 11:23:34;;;;;;;5.97;4.35;;;;;;;13.75;76.69;101015.88;5054668;28;20040;-84
2022/09/30 11:26:18;;;;;;;5.05;3.58;;;;;;;13.71;78.35;101014.47;5054774;28;20039;-84
2022/09/30 11:29:00;;;;;;;6.78;3.85;;;;;;;13.38;75.06;100984.03;5054233;28;20149;-84
2022/09/30 11:31:34;;;;;;;6.30;3.85;;;;;;;13.46;76.54;100994.66;5054563;28;20044;-82
2022/09/30 11:34:17;;;;;;;8.15;3.95;;;;;;;13.42;78.41;100980.25;5054488;28;20029;-83
2022/09/30 11:37:05;;;;;;;5.13;3.85;;;;;;;13.58;76.83;101000.75;5054111;28;20103;-84